createdAt,value
2023-09-25T00:01:45.367Z,1.90
2023-09-25T00:03:45.777Z,2.10
2023-09-25T00:05:46.121Z,2.00
2023-09-25T00:07:46.396Z,1.80
2023-09-25T00:09:46.673Z,1.90
2023-09-25T00:11:47.035Z,2.00
2023-09-25T00:13:47.261Z,1.90
2023-09-25T00:15:47.569Z,1.90
2023-09-25T00:17:47.949Z,2.00
2023-09-25T00:19:48.259Z,2.00
2023-09-25T00:21:48.578Z,1.90
2023-09-25T00:23:48.893Z,1.90
2023-09-25T00:25:49.238Z,2.10
2023-09-25T00:27:49.711Z,2.00
2023-09-25T00:29:50.039Z,2.00
2023-09-25T00:31:50.371Z,2.10
2023-09-25T00:33:50.758Z,2.00
2023-09-25T00:35:51.044Z,2.20
2023-09-25T00:37:51.332Z,2.50
2023-09-25T00:39:51.594Z,2.20
2023-09-25T00:41:51.875Z,2.20
2023-09-25T00:43:52.215Z,2.50
2023-09-25T00:45:52.543Z,2.30
2023-09-25T00:47:52.847Z,2.60
2023-09-25T00:49:53.248Z,2.50
2023-09-25T00:51:53.478Z,2.30
2023-09-25T00:53:56.728Z,2.20
2023-09-25T00:55:57.549Z,2.50
2023-09-25T00:58:46.137Z,2.70
2023-09-25T01:00:46.913Z,2.60
2023-09-25T01:02:47.329Z,2.60
2023-09-25T01:04:47.741Z,2.60
2023-09-25T01:06:48.124Z,2.60
2023-09-25T01:08:48.550Z,2.70
2023-09-25T01:10:49.025Z,2.80
2023-09-25T01:12:49.828Z,2.60
2023-09-25T01:14:50.259Z,2.70
2023-09-25T01:16:50.598Z,2.40
2023-09-25T01:18:51.312Z,2.30
2023-09-25T01:20:51.843Z,2.40
2023-09-25T01:22:52.172Z,2.10
2023-09-25T01:24:52.502Z,2.50
2023-09-25T01:26:52.810Z,2.60
2023-09-25T01:28:53.124Z,2.80
2023-09-25T01:30:53.401Z,2.60
2023-09-25T01:32:53.727Z,2.70
2023-09-25T01:34:54.045Z,2.70
2023-09-25T01:36:54.374Z,2.60
2023-09-25T01:38:54.684Z,2.70
2023-09-25T01:40:55.005Z,2.80
2023-09-25T01:42:55.339Z,2.80
2023-09-25T01:44:55.651Z,2.90
2023-09-25T01:46:55.940Z,2.60
2023-09-25T01:48:56.292Z,2.70
2023-09-25T01:50:56.565Z,2.90
2023-09-25T01:52:56.920Z,2.70
2023-09-25T01:54:57.179Z,2.90
2023-09-25T01:56:57.495Z,2.70
2023-09-25T01:58:57.859Z,2.90
2023-09-25T02:00:58.152Z,2.80
2023-09-25T02:02:58.656Z,2.90
2023-09-25T02:04:59.274Z,3.00
2023-09-25T02:06:59.736Z,2.80
2023-09-25T02:09:00.055Z,3.20
2023-09-25T02:11:00.355Z,3.10
2023-09-25T02:13:00.626Z,2.80
2023-09-25T02:15:01.045Z,2.70
2023-09-25T02:17:01.305Z,2.70
2023-09-25T02:19:01.604Z,2.70
2023-09-25T02:21:01.857Z,2.60
2023-09-25T02:23:02.219Z,2.80
2023-09-25T02:25:02.492Z,3.00
2023-09-25T02:27:02.776Z,2.70
2023-09-25T02:29:03.054Z,2.90
2023-09-25T02:31:03.374Z,2.70
2023-09-25T02:33:03.688Z,3.10
2023-09-25T02:35:03.998Z,3.40
2023-09-25T02:37:04.296Z,2.90
2023-09-25T02:39:04.585Z,2.50
2023-09-25T02:41:04.893Z,2.80
2023-09-25T02:43:05.220Z,2.70
2023-09-25T02:45:05.495Z,2.80
2023-09-25T02:47:05.820Z,2.90
2023-09-25T02:49:06.126Z,3.00
2023-09-25T02:51:06.554Z,2.90
2023-09-25T02:53:06.889Z,2.70
2023-09-25T02:55:07.179Z,2.90
2023-09-25T02:57:07.581Z,2.80
2023-09-25T02:59:07.926Z,3.00
2023-09-25T03:01:08.286Z,4.60
2023-09-25T03:03:08.628Z,4.00
2023-09-25T03:05:09.007Z,3.70
2023-09-25T03:07:09.277Z,3.00
2023-09-25T03:09:09.652Z,3.30
2023-09-25T03:11:09.982Z,3.10
2023-09-25T03:13:10.276Z,3.60
2023-09-25T03:15:10.669Z,3.40
2023-09-25T03:17:10.922Z,3.50
2023-09-25T03:19:11.245Z,3.80
2023-09-25T03:21:11.550Z,3.40
2023-09-25T03:23:11.954Z,3.40
2023-09-25T03:25:12.271Z,3.80
2023-09-25T03:27:12.565Z,4.20
2023-09-25T03:29:12.875Z,3.90
2023-09-25T03:31:13.200Z,3.80
2023-09-25T03:33:13.510Z,3.60
2023-09-25T03:35:13.787Z,4.60
2023-09-25T03:37:14.052Z,4.50
2023-09-25T03:39:14.388Z,4.80
2023-09-25T03:41:14.734Z,5.10
2023-09-25T03:43:15.148Z,5.40
2023-09-25T03:45:15.524Z,5.10
2023-09-25T03:47:15.814Z,4.90
2023-09-25T03:49:16.067Z,4.70
2023-09-25T03:51:16.529Z,5.30
2023-09-25T03:53:16.815Z,4.80
2023-09-25T03:55:17.092Z,5.00
2023-09-25T03:57:17.379Z,5.70
2023-09-25T03:59:17.678Z,5.80
2023-09-25T04:01:18.028Z,5.50
2023-09-25T04:03:18.479Z,5.30
2023-09-25T04:05:19.033Z,5.50
2023-09-25T04:07:19.380Z,5.40
2023-09-25T04:09:19.724Z,5.60
2023-09-25T04:11:20.017Z,6.00
2023-09-25T04:13:20.315Z,5.50
2023-09-25T04:15:20.607Z,6.10
2023-09-25T04:17:20.892Z,5.40
2023-09-25T04:19:21.348Z,5.80
2023-09-25T04:21:21.825Z,5.60
2023-09-25T04:23:22.113Z,6.20
2023-09-25T04:26:05.658Z,5.50
2023-09-25T04:28:05.943Z,5.60
2023-09-25T04:30:06.500Z,5.40
2023-09-25T04:32:06.908Z,5.50
2023-09-25T04:34:07.424Z,5.40
2023-09-25T04:36:07.701Z,5.00
2023-09-25T04:38:07.967Z,4.70
2023-09-25T04:40:08.306Z,5.00
2023-09-25T04:42:08.724Z,5.30
2023-09-25T04:44:08.973Z,4.70
2023-09-25T04:46:09.623Z,5.00
2023-09-25T04:49:36.934Z,5.10
2023-09-25T04:51:37.643Z,5.10
2023-09-25T04:53:38.181Z,5.20
2023-09-25T04:56:24.910Z,5.30
2023-09-25T04:59:16.118Z,4.60
2023-09-25T05:01:17.072Z,5.00
2023-09-25T05:04:02.923Z,4.50
2023-09-25T05:06:03.363Z,4.90
2023-09-25T05:08:03.631Z,4.90
2023-09-25T05:10:03.954Z,5.00
2023-09-25T05:12:04.253Z,4.80
2023-09-25T05:14:04.657Z,4.90
2023-09-25T05:16:05.142Z,4.80
2023-09-25T05:18:05.555Z,5.10
2023-09-25T05:20:05.865Z,5.50
2023-09-25T05:22:06.176Z,5.60
2023-09-25T05:24:06.573Z,6.00
2023-09-25T05:26:06.965Z,6.10
2023-09-25T05:28:07.297Z,6.70
2023-09-25T05:30:07.776Z,5.60
2023-09-25T05:32:08.141Z,5.00
2023-09-25T05:34:08.440Z,5.20
2023-09-25T05:36:08.778Z,5.70
2023-09-25T05:38:09.168Z,5.60
2023-09-25T05:40:09.441Z,5.50
2023-09-25T05:42:09.801Z,5.40
2023-09-25T05:44:10.077Z,4.90
2023-09-25T05:46:10.416Z,5.30
2023-09-25T05:48:10.702Z,5.80
2023-09-25T05:50:11.031Z,6.30
2023-09-25T05:52:11.406Z,6.50
2023-09-25T05:54:11.735Z,6.00
2023-09-25T05:56:13.490Z,6.10
2023-09-25T05:58:14.679Z,6.20
2023-09-25T06:00:15.130Z,6.00
2023-09-25T06:02:15.491Z,5.90
2023-09-25T06:04:15.955Z,6.50
2023-09-25T06:06:16.394Z,6.10
2023-09-25T06:08:16.779Z,6.10
2023-09-25T06:10:17.082Z,5.80
2023-09-25T06:12:22.328Z,5.50
2023-09-25T06:14:22.587Z,5.60
2023-09-25T06:16:22.958Z,5.60
2023-09-25T06:18:23.220Z,5.40
2023-09-25T06:20:23.500Z,5.20
2023-09-25T06:22:23.817Z,5.60
2023-09-25T06:24:24.191Z,5.60
2023-09-25T06:26:24.555Z,5.50
2023-09-25T06:28:24.880Z,5.60
2023-09-25T06:30:25.215Z,5.50
2023-09-25T06:32:26.481Z,5.50
2023-09-25T06:34:27.140Z,5.90
2023-09-25T06:36:27.591Z,6.40
2023-09-25T06:38:27.853Z,5.40
2023-09-25T06:40:28.169Z,5.90
2023-09-25T06:42:28.507Z,6.20
2023-09-25T06:44:28.806Z,5.70
2023-09-25T06:46:29.160Z,6.30
2023-09-25T06:48:29.651Z,6.10
2023-09-25T06:50:29.899Z,6.40
2023-09-25T06:52:30.219Z,6.10
2023-09-25T06:54:30.554Z,6.20
2023-09-25T06:56:30.867Z,6.10
2023-09-25T06:58:31.175Z,6.10
2023-09-25T07:00:39.339Z,6.10
2023-09-25T07:02:36.706Z,6.50
2023-09-25T07:04:37.128Z,6.00
2023-09-25T07:06:37.728Z,6.20
2023-09-25T07:08:38.009Z,5.90
2023-09-25T07:10:38.369Z,5.80
2023-09-25T07:12:38.705Z,5.70
2023-09-25T07:14:38.942Z,6.20
2023-09-25T07:16:39.315Z,6.40
2023-09-25T07:18:39.977Z,5.90
2023-09-25T07:20:40.530Z,5.90
2023-09-25T07:22:40.875Z,6.30
2023-09-25T07:24:46.067Z,6.00
2023-09-25T07:26:46.354Z,5.90
2023-09-25T07:28:46.722Z,5.90
2023-09-25T07:30:47.092Z,5.50
2023-09-25T07:32:47.412Z,5.60
2023-09-25T07:34:47.703Z,5.10
2023-09-25T07:36:48.088Z,5.00
2023-09-25T07:38:48.773Z,5.70
2023-09-25T07:40:59.176Z,5.30
2023-09-25T07:42:54.533Z,5.20
2023-09-25T07:44:54.880Z,4.80
2023-09-25T07:46:55.315Z,5.60
2023-09-25T07:48:55.755Z,5.10
2023-09-25T07:50:56.060Z,5.60
2023-09-25T07:52:56.384Z,5.50
2023-09-25T07:54:56.759Z,5.60
2023-09-25T07:57:01.887Z,5.90
2023-09-25T07:59:02.145Z,5.20
2023-09-25T08:01:02.475Z,4.80
2023-09-25T08:03:02.772Z,5.40
2023-09-25T08:05:03.142Z,5.30
2023-09-25T08:07:03.392Z,5.00
2023-09-25T08:09:03.714Z,5.10
2023-09-25T08:11:04.106Z,5.30
2023-09-25T08:13:04.488Z,5.00
2023-09-25T08:15:04.801Z,5.00
2023-09-25T08:17:05.073Z,4.60
2023-09-25T08:19:05.346Z,4.60
2023-09-25T08:21:05.763Z,4.40
2023-09-25T08:23:06.147Z,4.50
2023-09-25T08:25:06.550Z,4.20
2023-09-25T08:27:06.784Z,3.90
2023-09-25T08:29:08.715Z,3.70
2023-09-25T08:31:09.181Z,3.60
2023-09-25T08:33:09.576Z,4.00
2023-09-25T08:35:09.887Z,3.90
2023-09-25T08:37:10.266Z,3.70
2023-09-25T08:39:10.529Z,3.50
2023-09-25T08:41:10.847Z,3.70
2023-09-25T08:43:20.332Z,3.80
2023-09-25T08:45:16.474Z,3.70
2023-09-25T08:47:16.874Z,3.90
2023-09-25T08:49:17.161Z,3.70
2023-09-25T08:51:17.426Z,3.60
2023-09-25T08:53:17.845Z,3.30
2023-09-25T08:55:18.130Z,3.50
2023-09-25T08:57:18.596Z,3.00
2023-09-25T08:59:18.924Z,2.90
2023-09-25T09:01:19.234Z,2.70
2023-09-25T09:03:19.684Z,3.30
2023-09-25T09:05:20.085Z,3.10
2023-09-25T09:07:20.426Z,3.20
2023-09-25T09:09:20.730Z,2.80
2023-09-25T09:11:20.967Z,2.80
2023-09-25T09:13:21.339Z,3.00
2023-09-25T09:15:21.638Z,2.30
2023-09-25T09:17:21.888Z,2.60
2023-09-25T09:19:22.200Z,2.20
2023-09-25T09:21:22.539Z,2.30
2023-09-25T09:23:22.805Z,2.10
2023-09-25T09:25:23.111Z,2.00
2023-09-25T09:27:23.454Z,1.90
2023-09-25T09:29:23.738Z,2.00
2023-09-25T09:31:24.029Z,2.00
2023-09-25T09:33:24.356Z,2.20
2023-09-25T09:35:24.668Z,1.80
2023-09-25T09:37:24.978Z,1.90
2023-09-25T09:39:25.289Z,2.00
2023-09-25T09:41:25.518Z,1.90
2023-09-25T09:43:25.818Z,2.00
2023-09-25T09:45:26.152Z,1.90
2023-09-25T09:47:26.476Z,1.90
2023-09-25T09:49:26.723Z,1.90
2023-09-25T09:51:27.055Z,1.90
2023-09-25T09:53:27.367Z,1.80
2023-09-25T09:55:27.652Z,1.90
2023-09-25T09:57:28.007Z,2.00
2023-09-25T09:59:28.254Z,1.90
2023-09-25T10:01:28.762Z,1.80
2023-09-25T10:03:29.260Z,2.10
2023-09-25T10:05:29.650Z,1.80
2023-09-25T10:07:29.946Z,1.90
2023-09-25T10:09:30.263Z,1.90
2023-09-25T10:11:31.236Z,1.90
2023-09-25T10:13:31.680Z,1.70
2023-09-25T10:15:32.048Z,2.40
2023-09-25T10:17:32.437Z,2.20
2023-09-25T10:19:32.803Z,2.20
2023-09-25T10:21:33.146Z,2.10
2023-09-25T10:23:33.535Z,2.40
2023-09-25T10:25:33.964Z,1.80
2023-09-25T10:27:34.240Z,2.00
2023-09-25T10:29:34.600Z,2.20
2023-09-25T10:31:34.852Z,2.10
2023-09-25T10:33:35.300Z,2.10
2023-09-25T10:35:35.667Z,1.90
2023-09-25T10:38:31.680Z,1.90
2023-09-25T10:40:29.908Z,1.90
2023-09-25T10:42:31.123Z,2.00
2023-09-25T10:44:31.644Z,2.30
2023-09-25T10:46:32.121Z,1.90
2023-09-25T10:48:32.656Z,1.70
2023-09-25T10:50:33.274Z,1.80
2023-09-25T10:52:35.935Z,1.90
2023-09-25T10:54:37.400Z,1.90
2023-09-25T10:56:37.701Z,1.80
2023-09-25T10:58:38.307Z,1.90
2023-09-25T11:00:39.149Z,1.80
2023-09-25T11:02:39.617Z,1.80
2023-09-25T11:04:40.007Z,1.90
2023-09-25T11:06:40.380Z,1.70
2023-09-25T11:08:40.614Z,1.60
2023-09-25T11:10:41.065Z,1.80
2023-09-25T11:12:41.349Z,1.80
2023-09-25T11:14:41.715Z,1.60
2023-09-25T11:16:42.143Z,1.80
2023-09-25T11:18:42.546Z,1.80
2023-09-25T11:20:42.808Z,1.60
2023-09-25T11:22:43.115Z,1.70
2023-09-25T11:24:43.405Z,1.90
2023-09-25T11:26:48.552Z,1.50
2023-09-25T11:28:48.850Z,1.60
2023-09-25T11:30:49.365Z,1.70
2023-09-25T11:32:50.093Z,1.50
2023-09-25T11:34:50.418Z,1.70
2023-09-25T11:36:50.793Z,1.60
2023-09-25T11:38:51.373Z,1.60
2023-09-25T11:40:51.916Z,1.80
2023-09-25T11:42:52.205Z,1.80
2023-09-25T11:44:52.493Z,1.70
2023-09-25T11:46:52.934Z,1.60
2023-09-25T11:48:53.531Z,1.60
2023-09-25T11:50:53.868Z,1.60
2023-09-25T11:52:54.178Z,1.50
2023-09-25T11:54:54.529Z,1.60
2023-09-25T11:56:54.834Z,1.60
2023-09-25T11:58:55.134Z,1.60
2023-09-25T12:00:55.504Z,1.70
2023-09-25T12:02:55.911Z,1.80
2023-09-25T12:04:56.511Z,1.40
2023-09-25T12:06:56.895Z,1.80
2023-09-25T12:08:57.190Z,1.60
2023-09-25T12:10:57.503Z,1.60
2023-09-25T12:12:57.742Z,1.70
2023-09-25T12:14:58.126Z,1.60
2023-09-25T12:16:58.589Z,1.70
2023-09-25T12:18:58.994Z,1.50
2023-09-25T12:20:59.477Z,1.70
2023-09-25T12:22:59.750Z,1.60
2023-09-25T12:25:00.114Z,1.50
2023-09-25T12:27:00.652Z,1.60
2023-09-25T12:29:01.014Z,1.60
2023-09-25T12:31:01.338Z,1.60
2023-09-25T12:33:01.836Z,1.70
2023-09-25T12:35:02.241Z,1.70
2023-09-25T12:37:02.547Z,1.50
2023-09-25T12:39:02.789Z,1.60
2023-09-25T12:41:03.346Z,1.40
2023-09-25T12:43:03.666Z,1.60
2023-09-25T12:45:03.902Z,1.60
2023-09-25T12:47:04.296Z,1.70
2023-09-25T12:49:04.777Z,1.50
2023-09-25T12:51:05.090Z,1.70
2023-09-25T12:53:05.609Z,1.40
2023-09-25T12:55:06.184Z,1.70
2023-09-25T12:57:08.469Z,1.80
2023-09-25T12:59:08.795Z,1.60
2023-09-25T13:01:09.289Z,1.90
2023-09-25T13:05:09.963Z,2.00
2023-09-25T13:07:10.331Z,1.60
2023-09-25T13:09:10.761Z,1.70
2023-09-25T13:11:11.159Z,1.60
2023-09-25T13:13:11.510Z,1.60
2023-09-25T13:15:11.832Z,1.60
2023-09-25T13:17:12.084Z,1.70
2023-09-25T13:19:12.453Z,1.50
2023-09-25T13:21:12.727Z,1.70
2023-09-25T13:23:13.044Z,1.70
2023-09-25T13:25:13.436Z,1.60
2023-09-25T13:27:13.765Z,1.50
2023-09-25T13:29:14.075Z,1.50
2023-09-25T13:31:14.552Z,1.60
2023-09-25T13:33:14.909Z,1.60
2023-09-25T13:35:15.189Z,1.70
2023-09-25T13:37:15.470Z,1.80
2023-09-25T13:39:15.769Z,1.70
2023-09-25T13:41:16.031Z,1.70
2023-09-25T13:43:16.328Z,1.90
2023-09-25T13:45:21.544Z,1.80
2023-09-25T13:47:21.842Z,1.90
2023-09-25T13:49:22.425Z,1.60
2023-09-25T13:51:22.717Z,1.60
2023-09-25T13:53:22.977Z,1.70
2023-09-25T13:55:23.310Z,1.50
2023-09-25T13:57:23.613Z,1.80
2023-09-25T13:59:23.953Z,1.70
2023-09-25T14:01:24.269Z,1.60
2023-09-25T14:03:24.698Z,1.50
2023-09-25T14:05:25.385Z,1.50
2023-09-25T14:07:25.800Z,1.70
2023-09-25T14:09:26.250Z,1.60
2023-09-25T14:11:26.703Z,1.60
2023-09-25T14:13:27.117Z,1.50
2023-09-25T14:15:28.666Z,1.60
2023-09-25T14:17:30.993Z,1.60
2023-09-25T14:19:31.276Z,1.50
2023-09-25T14:21:31.612Z,1.50
2023-09-25T14:23:31.918Z,1.40
2023-09-25T14:25:32.245Z,1.40
2023-09-25T14:27:37.458Z,1.60
2023-09-25T14:29:37.723Z,1.40
2023-09-25T14:31:38.104Z,1.40
2023-09-25T14:33:38.458Z,1.60
2023-09-25T14:35:38.711Z,1.60
2023-09-25T14:37:38.963Z,1.70
2023-09-25T14:39:39.299Z,1.40
2023-09-25T14:41:39.539Z,1.60
2023-09-25T14:43:39.833Z,1.50
2023-09-25T14:45:40.139Z,1.60
2023-09-25T14:47:40.468Z,1.50
2023-09-25T14:49:40.817Z,1.40
2023-09-25T14:51:41.172Z,1.50
2023-09-25T14:53:41.440Z,1.40
2023-09-25T14:55:54.269Z,1.60
2023-09-25T14:57:47.045Z,1.60
2023-09-25T14:59:47.294Z,1.60
2023-09-25T15:01:50.316Z,1.80
2023-09-25T15:03:51.364Z,1.40
2023-09-25T15:05:51.912Z,1.60
2023-09-25T15:07:52.227Z,1.70
2023-09-25T15:09:52.548Z,1.50
2023-09-25T15:11:52.839Z,1.80
2023-09-25T15:13:53.145Z,1.60
2023-09-25T15:15:53.771Z,1.70
2023-09-25T15:17:54.160Z,1.60
2023-09-25T15:19:54.424Z,1.70
2023-09-25T15:21:54.789Z,1.60
2023-09-25T15:23:55.160Z,1.50
2023-09-25T15:25:55.434Z,1.60
2023-09-25T15:27:55.743Z,1.60
2023-09-25T15:29:56.024Z,1.40
2023-09-25T15:31:56.612Z,1.30
2023-09-25T15:33:56.915Z,1.60
2023-09-25T15:35:57.227Z,1.90
2023-09-25T15:37:57.505Z,1.50
2023-09-25T15:39:57.932Z,1.50
2023-09-25T15:41:58.335Z,1.70
2023-09-25T15:43:58.642Z,1.50
2023-09-25T15:45:59.014Z,1.60
2023-09-25T15:47:59.367Z,1.70
2023-09-25T15:49:59.620Z,1.60
2023-09-25T15:52:00.782Z,1.70
2023-09-25T15:54:01.031Z,1.60
2023-09-25T15:56:01.346Z,1.60
2023-09-25T15:58:01.696Z,1.70
2023-09-25T16:00:02.012Z,1.60
2023-09-25T16:02:02.366Z,1.50
2023-09-25T16:04:02.889Z,1.50
2023-09-25T16:06:03.252Z,1.60
2023-09-25T16:08:03.548Z,1.70
2023-09-25T16:10:03.864Z,1.60
2023-09-25T16:12:04.148Z,1.60
2023-09-25T16:14:04.587Z,1.80
2023-09-25T16:16:05.071Z,1.90
2023-09-25T16:18:05.402Z,1.60
2023-09-25T16:20:05.658Z,1.60
2023-09-25T16:22:05.967Z,1.80
2023-09-25T16:24:06.272Z,1.70
2023-09-25T16:26:06.529Z,1.80
2023-09-25T16:28:06.888Z,1.70
2023-09-25T16:30:07.171Z,1.80
2023-09-25T16:32:07.544Z,1.70
2023-09-25T16:34:07.862Z,1.60
2023-09-25T16:36:08.171Z,1.70
2023-09-25T16:38:08.424Z,1.60
2023-09-25T16:40:08.822Z,1.70
2023-09-25T16:42:09.078Z,1.90
2023-09-25T16:44:09.370Z,1.70
2023-09-25T16:46:09.737Z,1.80
2023-09-25T16:48:10.173Z,1.90
2023-09-25T16:50:10.480Z,1.60
2023-09-25T16:52:10.837Z,1.80
2023-09-25T16:54:11.187Z,1.90
2023-09-25T16:56:11.453Z,1.80
2023-09-25T16:58:11.780Z,1.80
2023-09-25T17:00:12.132Z,1.90
2023-09-25T17:02:12.475Z,1.70
2023-09-25T17:04:12.782Z,1.60
2023-09-25T17:06:13.073Z,2.00
2023-09-25T17:08:13.342Z,2.10
2023-09-25T17:10:13.712Z,1.80
2023-09-25T17:12:13.990Z,2.10
2023-09-25T17:14:14.300Z,2.00
2023-09-25T17:16:14.662Z,2.10
2023-09-25T17:18:14.952Z,2.20
2023-09-25T17:20:15.318Z,2.00
2023-09-25T17:22:15.550Z,2.20
2023-09-25T17:24:15.857Z,2.50
2023-09-25T17:26:16.136Z,2.30
2023-09-25T17:28:16.480Z,2.70
2023-09-25T17:30:16.790Z,2.10
2023-09-25T17:32:22.053Z,2.50
2023-09-25T17:34:22.424Z,2.40
2023-09-25T17:36:22.804Z,2.60
2023-09-25T17:38:23.079Z,2.30
2023-09-25T17:40:23.383Z,2.60
2023-09-25T17:42:23.634Z,2.30
2023-09-25T17:44:24.072Z,2.60
2023-09-25T17:46:24.563Z,2.60
2023-09-25T17:48:25.127Z,2.40
2023-09-25T17:50:25.535Z,2.70
2023-09-25T17:52:26.264Z,2.50
2023-09-25T17:54:26.895Z,2.60
2023-09-25T17:57:09.024Z,2.60
2023-09-25T17:59:09.279Z,2.70
2023-09-25T18:01:09.715Z,2.70
2023-09-25T18:03:10.051Z,2.90
2023-09-25T18:05:10.451Z,2.90
2023-09-25T18:07:10.841Z,2.90
2023-09-25T18:09:16.088Z,3.40
2023-09-25T18:11:16.350Z,2.60
2023-09-25T18:13:16.755Z,2.50
2023-09-25T18:15:17.093Z,2.90
2023-09-25T18:17:17.389Z,3.10
2023-09-25T18:19:17.898Z,2.90
2023-09-25T18:21:18.215Z,3.00
2023-09-25T18:23:18.981Z,2.90
2023-09-25T18:25:19.811Z,2.70
2023-09-25T18:27:20.132Z,3.20
2023-09-25T18:29:20.500Z,3.20
2023-09-25T18:31:20.890Z,3.20
2023-09-25T18:33:21.406Z,3.20
2023-09-25T18:35:21.771Z,3.30
2023-09-25T18:37:22.119Z,3.00
2023-09-25T18:39:22.449Z,3.00
2023-09-25T18:41:22.823Z,3.10
2023-09-25T18:43:27.961Z,3.30
2023-09-25T18:45:28.326Z,3.40
2023-09-25T18:47:28.625Z,3.20
2023-09-25T18:49:28.924Z,3.50
2023-09-25T18:51:29.221Z,3.30
2023-09-25T18:53:29.487Z,3.20
2023-09-25T18:55:29.991Z,3.40
2023-09-25T18:57:30.486Z,3.00
2023-09-25T18:59:31.013Z,3.20
2023-09-25T19:01:31.446Z,3.20
2023-09-25T19:03:31.761Z,3.10
2023-09-25T19:05:32.219Z,3.40
2023-09-25T19:07:32.518Z,3.50
2023-09-25T19:09:32.795Z,3.50
2023-09-25T19:11:33.241Z,3.40
2023-09-25T19:13:42.870Z,3.20
2023-09-25T19:15:38.818Z,3.10
2023-09-25T19:17:39.215Z,3.50
2023-09-25T19:19:39.695Z,3.10
2023-09-25T19:21:40.161Z,3.20
2023-09-25T19:23:40.617Z,3.20
2023-09-25T19:25:40.958Z,3.10
2023-09-25T19:27:41.240Z,3.30
2023-09-25T19:29:41.589Z,3.40
2023-09-25T19:31:44.789Z,3.40
2023-09-25T19:33:57.290Z,3.30
2023-09-25T19:35:51.855Z,3.50
2023-09-25T19:37:52.348Z,3.80
2023-09-25T19:39:52.649Z,3.60
2023-09-25T19:41:52.960Z,3.60
2023-09-25T19:43:53.645Z,3.30
2023-09-25T19:45:54.165Z,3.40
2023-09-25T19:47:54.520Z,3.60
2023-09-25T19:49:59.750Z,4.00
2023-09-25T19:52:00.166Z,3.30
2023-09-25T19:54:00.517Z,3.40
2023-09-25T19:56:00.843Z,4.10
2023-09-25T19:58:03.872Z,3.80
2023-09-25T20:00:04.457Z,3.80
2023-09-25T20:02:04.724Z,3.90
2023-09-25T20:04:05.166Z,3.80
2023-09-25T20:06:05.677Z,4.00
2023-09-25T20:08:06.331Z,3.70
2023-09-25T20:10:06.744Z,3.60
2023-09-25T20:12:07.230Z,3.50
2023-09-25T20:14:08.635Z,3.70
2023-09-25T20:16:09.021Z,3.90
2023-09-25T20:18:09.374Z,3.80
2023-09-25T20:20:09.669Z,4.60
2023-09-25T20:22:10.051Z,4.00
2023-09-25T20:24:10.649Z,4.30
2023-09-25T20:26:11.048Z,4.10
2023-09-25T20:28:11.456Z,4.00
2023-09-25T20:30:11.864Z,4.10
2023-09-25T20:32:12.612Z,4.40
2023-09-25T20:34:13.413Z,4.60
2023-09-25T20:36:14.101Z,4.60
2023-09-25T20:38:14.359Z,4.40
2023-09-25T20:40:14.795Z,4.30
2023-09-25T20:42:15.210Z,4.40
2023-09-25T20:44:15.510Z,4.40
2023-09-25T20:46:15.876Z,4.60
2023-09-25T20:48:16.209Z,4.90
2023-09-25T20:50:16.496Z,4.40
2023-09-25T20:52:17.038Z,4.90
2023-09-25T20:54:17.381Z,5.00
2023-09-25T20:56:17.736Z,4.80
2023-09-25T20:58:18.179Z,5.60
2023-09-25T21:00:18.756Z,5.00
2023-09-25T21:02:19.333Z,4.60
2023-09-25T21:04:19.704Z,4.70
2023-09-25T21:06:20.100Z,4.40
2023-09-25T21:08:20.615Z,4.50
2023-09-25T21:10:21.179Z,4.80
2023-09-25T21:12:21.501Z,4.70
2023-09-25T21:14:21.848Z,4.80
2023-09-25T21:16:22.155Z,4.70
2023-09-25T21:18:22.594Z,4.80
2023-09-25T21:20:22.842Z,4.20
2023-09-25T21:22:23.190Z,4.40
2023-09-25T21:24:23.428Z,4.40
2023-09-25T21:26:23.811Z,4.20
2023-09-25T21:28:24.068Z,4.30
2023-09-25T21:30:26.568Z,4.40
2023-09-25T21:32:31.779Z,4.50
2023-09-25T21:34:32.090Z,4.30
2023-09-25T21:36:32.382Z,4.70
2023-09-25T21:38:32.768Z,4.40
2023-09-25T21:40:33.011Z,4.80
2023-09-25T21:42:33.317Z,4.40
2023-09-25T21:44:33.656Z,4.40
2023-09-25T21:46:34.073Z,4.60
2023-09-25T21:48:34.454Z,4.20
2023-09-25T21:50:34.842Z,4.40
2023-09-25T21:52:35.106Z,5.00
2023-09-25T21:54:35.470Z,4.80
2023-09-25T21:56:35.766Z,4.80
2023-09-25T21:58:36.264Z,4.60
2023-09-25T22:00:36.503Z,4.50
2023-09-25T22:02:36.957Z,4.40
2023-09-25T22:04:37.619Z,4.40
2023-09-25T22:06:38.124Z,4.90
2023-09-25T22:08:38.428Z,4.60
2023-09-25T22:10:38.813Z,4.70
2023-09-25T22:12:39.149Z,4.20
2023-09-25T22:14:39.456Z,5.00
2023-09-25T22:16:39.851Z,4.80
2023-09-25T22:18:40.296Z,4.90
2023-09-25T22:20:40.731Z,4.60
2023-09-25T22:22:41.127Z,5.00
2023-09-25T22:24:41.483Z,5.10
2023-09-25T22:26:41.796Z,5.20
2023-09-25T22:28:42.309Z,4.60
2023-09-25T22:30:42.738Z,4.80
2023-09-25T22:32:43.184Z,5.20
2023-09-25T22:34:43.455Z,5.30
2023-09-25T22:36:43.922Z,5.20
2023-09-25T22:38:44.235Z,5.20
2023-09-25T22:40:44.539Z,5.20
2023-09-25T22:42:44.845Z,5.90
2023-09-25T22:44:45.188Z,5.60
2023-09-25T22:46:45.533Z,5.70
2023-09-25T22:48:45.904Z,5.10
2023-09-25T22:50:46.225Z,5.30
2023-09-25T22:52:46.529Z,5.50
2023-09-25T22:54:46.849Z,4.90
2023-09-25T22:56:47.192Z,5.40
2023-09-25T22:58:47.550Z,5.00
2023-09-25T23:00:48.039Z,5.60
2023-09-25T23:02:48.385Z,5.20
2023-09-25T23:04:48.867Z,5.20
2023-09-25T23:06:53.972Z,5.20
2023-09-25T23:08:54.333Z,5.60
2023-09-25T23:10:54.597Z,5.70
2023-09-25T23:12:54.955Z,5.70
2023-09-25T23:14:55.268Z,5.70
2023-09-25T23:16:55.659Z,6.10
2023-09-25T23:18:56.031Z,5.60
2023-09-25T23:20:56.342Z,5.80
2023-09-25T23:22:56.869Z,6.20
2023-09-25T23:24:57.256Z,6.00
2023-09-25T23:26:57.561Z,6.40
2023-09-25T23:28:57.913Z,6.40
2023-09-25T23:30:58.287Z,6.60
2023-09-25T23:32:58.737Z,6.40
2023-09-25T23:34:59.028Z,6.00
2023-09-25T23:36:59.437Z,5.60
2023-09-25T23:38:59.765Z,5.80
2023-09-25T23:41:00.106Z,5.70
2023-09-25T23:43:00.541Z,6.20
2023-09-25T23:45:00.852Z,6.60
2023-09-25T23:47:01.244Z,6.20
2023-09-25T23:49:01.713Z,6.40
2023-09-25T23:51:02.017Z,6.40
2023-09-25T23:53:02.306Z,6.20
2023-09-25T23:55:02.640Z,6.50
2023-09-25T23:57:03.023Z,6.00
2023-09-25T23:59:03.390Z,6.00
